createdAt,value
2023-03-05T00:01:37.402Z,14.83
2023-03-05T00:04:07.277Z,12.97
2023-03-05T00:06:35.890Z,15.60
2023-03-05T00:09:17.492Z,18.40
2023-03-05T00:11:47.973Z,13.23
2023-03-05T00:14:16.488Z,20.87
2023-03-05T00:16:45.126Z,32.23
2023-03-05T00:19:17.049Z,12.67
2023-03-05T00:21:45.547Z,14.03
2023-03-05T00:24:15.329Z,15.03
2023-03-05T00:26:47.674Z,17.43
2023-03-05T00:29:19.526Z,15.80
2023-03-05T00:31:48.069Z,17.30
2023-03-05T00:34:17.577Z,11.73
2023-03-05T00:36:47.123Z,19.67
2023-03-05T00:39:17.518Z,19.23
2023-03-05T00:41:45.991Z,12.30
2023-03-05T00:44:14.706Z,17.30
2023-03-05T00:46:46.010Z,16.27
2023-03-05T00:49:14.658Z,19.50
2023-03-05T00:51:43.481Z,17.43
2023-03-05T00:54:12.873Z,18.17
2023-03-05T00:56:41.419Z,17.20
2023-03-05T00:59:10.342Z,16.70
2023-03-05T01:01:39.424Z,22.43
2023-03-05T01:04:09.460Z,21.73
2023-03-05T01:06:42.970Z,19.33
2023-03-05T01:09:11.844Z,11.00
2023-03-05T01:11:40.302Z,15.17
2023-03-05T01:14:09.129Z,17.17
2023-03-05T01:16:37.566Z,17.47
2023-03-05T01:19:06.194Z,25.97
2023-03-05T01:21:36.525Z,17.60
2023-03-05T01:24:05.253Z,18.83
2023-03-05T01:26:33.781Z,15.80
2023-03-05T01:29:02.214Z,18.50
2023-03-05T01:31:30.784Z,29.37
2023-03-05T01:34:00.256Z,16.33
2023-03-05T01:36:42.640Z,15.63
2023-03-05T01:39:11.243Z,12.40
2023-03-05T01:41:39.651Z,21.43
2023-03-05T01:44:08.054Z,17.97
2023-03-05T01:46:36.667Z,15.30
2023-03-05T01:49:13.996Z,17.33
2023-03-05T01:51:46.440Z,12.27
2023-03-05T01:54:17.342Z,28.10
2023-03-05T01:56:46.180Z,21.13
2023-03-05T01:59:15.954Z,14.63
2023-03-05T02:01:46.012Z,15.23
2023-03-05T02:04:16.638Z,17.63
2023-03-05T02:06:46.841Z,17.87
2023-03-05T02:09:15.335Z,16.17
2023-03-05T02:11:44.257Z,17.70
2023-03-05T02:14:13.413Z,22.33
2023-03-05T02:16:42.119Z,22.73
2023-03-05T02:19:12.152Z,13.30
2023-03-05T02:21:43.230Z,22.30
2023-03-05T02:24:15.474Z,16.97
2023-03-05T02:26:45.084Z,23.67
2023-03-05T02:29:15.203Z,24.07
2023-03-05T02:31:44.091Z,17.33
2023-03-05T02:34:12.528Z,15.47
2023-03-05T02:36:42.272Z,16.10
2023-03-05T02:39:11.003Z,22.37
2023-03-05T02:41:39.880Z,19.93
2023-03-05T02:44:08.446Z,15.43
2023-03-05T02:46:37.082Z,11.03
2023-03-05T02:49:05.916Z,26.90
2023-03-05T02:51:34.474Z,16.10
2023-03-05T02:54:04.459Z,13.63
2023-03-05T02:56:33.236Z,16.73
2023-03-05T02:59:01.745Z,22.67
2023-03-05T03:01:30.344Z,14.40
2023-03-05T03:03:59.313Z,18.53
2023-03-05T03:06:27.862Z,16.93
2023-03-05T03:08:56.382Z,14.67
2023-03-05T03:11:26.466Z,15.13
2023-03-05T03:13:54.907Z,13.33
2023-03-05T03:16:23.325Z,19.23
2023-03-05T03:18:51.824Z,10.50
2023-03-05T03:21:25.804Z,13.07
2023-03-05T03:23:54.364Z,15.03
2023-03-05T03:26:22.867Z,11.07
2023-03-05T03:28:53.077Z,15.93
2023-03-05T03:31:21.674Z,18.60
2023-03-05T03:33:50.317Z,6.90
2023-03-05T03:36:18.978Z,19.60
2023-03-05T03:38:47.430Z,14.87
2023-03-05T03:41:15.829Z,14.30
2023-03-05T03:43:44.782Z,16.90
2023-03-05T03:46:14.730Z,10.93
2023-03-05T03:48:43.207Z,21.93
2023-03-05T03:51:12.220Z,14.73
2023-03-05T03:53:41.159Z,19.03
2023-03-05T03:56:09.760Z,13.37
2023-03-05T03:58:38.396Z,23.43
2023-03-05T04:01:07.003Z,17.07
2023-03-05T04:03:37.099Z,17.77
2023-03-05T04:06:07.090Z,22.10
2023-03-05T04:08:35.428Z,17.67
2023-03-05T04:11:04.207Z,11.97
2023-03-05T04:13:33.175Z,14.03
2023-03-05T04:16:01.569Z,10.60
2023-03-05T04:18:32.436Z,10.80
2023-03-05T04:21:02.464Z,16.90
2023-03-05T04:23:30.928Z,13.93
2023-03-05T04:25:59.418Z,22.53
2023-03-05T04:28:28.038Z,19.90
2023-03-05T04:30:56.697Z,14.77
2023-03-05T04:33:25.354Z,20.50
2023-03-05T04:35:55.902Z,12.37
2023-03-05T04:38:25.874Z,17.00
2023-03-05T04:40:54.239Z,13.37
2023-03-05T04:43:23.016Z,11.70
2023-03-05T04:45:51.589Z,13.20
2023-03-05T04:48:20.236Z,19.30
2023-03-05T04:50:48.798Z,15.50
2023-03-05T04:53:18.378Z,15.83
2023-03-05T04:55:48.237Z,11.90
2023-03-05T04:58:16.625Z,9.70
2023-03-05T05:00:45.118Z,21.80
2023-03-05T05:03:13.887Z,13.50
2023-03-05T05:05:42.413Z,14.60
2023-03-05T05:08:12.019Z,20.10
2023-03-05T05:10:41.388Z,12.90
2023-03-05T05:13:11.278Z,26.23
2023-03-05T05:15:41.949Z,23.57
2023-03-05T05:18:10.444Z,9.17
2023-03-05T05:20:39.209Z,14.33
2023-03-05T05:23:07.899Z,16.60
2023-03-05T05:25:36.365Z,12.80
2023-03-05T05:28:09.931Z,13.10
2023-03-05T05:30:40.221Z,21.10
2023-03-05T05:33:08.746Z,13.70
2023-03-05T05:35:41.139Z,16.83
2023-03-05T05:38:09.986Z,12.23
2023-03-05T05:40:38.580Z,22.80
2023-03-05T05:43:07.206Z,12.63
2023-03-05T05:45:35.665Z,14.30
2023-03-05T05:48:05.810Z,18.17
2023-03-05T05:50:34.377Z,16.20
2023-03-05T05:53:02.985Z,19.83
2023-03-05T05:55:31.466Z,22.53
2023-03-05T05:57:59.840Z,15.40
2023-03-05T06:00:28.379Z,14.13
2023-03-05T06:02:56.800Z,16.43
2023-03-05T06:05:27.014Z,17.17
2023-03-05T06:07:55.538Z,23.50
2023-03-05T06:10:23.913Z,17.90
2023-03-05T06:12:52.397Z,22.00
2023-03-05T06:15:21.301Z,19.90
2023-03-05T06:17:49.771Z,18.77
2023-03-05T06:20:18.511Z,14.90
2023-03-05T06:22:48.387Z,18.17
2023-03-05T06:25:16.836Z,21.83
2023-03-05T06:27:45.291Z,20.83
2023-03-05T06:30:14.243Z,19.37
2023-03-05T06:32:42.642Z,12.80
2023-03-05T06:35:11.811Z,11.23
2023-03-05T06:37:58.987Z,12.30
2023-03-05T06:40:28.906Z,17.87
2023-03-05T06:42:57.281Z,12.73
2023-03-05T06:45:25.652Z,19.37
2023-03-05T06:47:54.080Z,16.80
2023-03-05T06:50:22.511Z,12.13
2023-03-05T06:52:51.414Z,17.93
2023-03-05T06:55:20.292Z,9.07
2023-03-05T06:57:50.357Z,8.53
2023-03-05T07:00:19.146Z,20.53
2023-03-05T07:02:47.971Z,18.40
2023-03-05T07:05:16.454Z,18.27
2023-03-05T07:07:44.930Z,17.80
2023-03-05T07:10:13.865Z,12.27
2023-03-05T07:12:43.562Z,12.93
2023-03-05T07:15:14.135Z,15.83
2023-03-05T07:17:42.782Z,15.07
2023-03-05T07:20:12.076Z,14.43
2023-03-05T07:22:40.680Z,24.77
2023-03-05T07:25:09.488Z,14.47
2023-03-05T07:27:38.723Z,17.23
2023-03-05T07:30:09.632Z,23.40
2023-03-05T07:32:39.698Z,18.17
2023-03-05T07:35:09.052Z,16.97
2023-03-05T07:37:37.549Z,12.10
2023-03-05T07:40:06.915Z,20.63
2023-03-05T07:42:35.895Z,15.27
2023-03-05T07:45:04.313Z,24.70
2023-03-05T07:47:32.693Z,11.17
2023-03-05T07:50:02.738Z,19.47
2023-03-05T07:52:31.487Z,21.13
2023-03-05T07:55:00.090Z,17.60
2023-03-05T07:57:28.908Z,17.00
2023-03-05T07:59:58.142Z,14.03
2023-03-05T08:02:26.735Z,15.17
2023-03-05T08:04:55.291Z,21.20
2023-03-05T08:07:25.356Z,13.40
2023-03-05T08:09:53.745Z,14.93
2023-03-05T08:12:23.147Z,13.47
2023-03-05T08:14:52.147Z,17.43
2023-03-05T08:17:20.599Z,11.07
2023-03-05T08:19:49.460Z,22.47
2023-03-05T08:22:20.490Z,21.57
2023-03-05T08:24:50.813Z,22.37
2023-03-05T08:27:19.274Z,17.80
2023-03-05T08:29:47.794Z,18.17
2023-03-05T08:32:16.520Z,17.90
2023-03-05T08:34:45.184Z,17.13
2023-03-05T08:37:13.577Z,11.60
2023-03-05T08:39:42.504Z,13.80
2023-03-05T08:42:20.760Z,16.40
2023-03-05T08:44:49.716Z,20.60
2023-03-05T08:47:18.815Z,15.20
2023-03-05T08:49:47.142Z,17.60
2023-03-05T08:52:15.494Z,11.43
2023-03-05T08:54:44.106Z,16.80
2023-03-05T08:57:12.637Z,22.73
2023-03-05T08:59:42.622Z,12.33
2023-03-05T09:02:19.153Z,12.80
2023-03-05T09:04:47.584Z,10.80
2023-03-05T09:07:17.980Z,15.47
2023-03-05T09:09:46.485Z,15.33
2023-03-05T09:12:23.336Z,16.57
2023-03-05T09:14:56.047Z,16.70
2023-03-05T09:17:24.790Z,13.03
2023-03-05T09:19:53.372Z,14.83
2023-03-05T09:22:25.796Z,13.20
2023-03-05T09:24:54.315Z,18.23
2023-03-05T09:27:22.715Z,17.07
2023-03-05T09:29:53.082Z,22.37
2023-03-05T09:32:23.123Z,21.73
2023-03-05T09:34:58.819Z,16.07
2023-03-05T09:37:27.932Z,17.27
2023-03-05T09:39:56.401Z,14.73
2023-03-05T09:42:41.024Z,15.20
2023-03-05T09:45:16.343Z,14.10
2023-03-05T09:47:51.859Z,17.90
2023-03-05T09:50:32.526Z,22.47
2023-03-05T09:53:06.035Z,19.27
2023-03-05T09:55:37.288Z,17.80
2023-03-05T09:58:08.044Z,17.93
2023-03-05T10:00:37.840Z,16.80
2023-03-05T10:03:09.001Z,18.87
2023-03-05T10:05:48.288Z,19.50
2023-03-05T10:08:28.466Z,12.87
2023-03-05T10:11:07.182Z,13.47
2023-03-05T10:13:39.599Z,16.10
2023-03-05T10:16:26.896Z,15.60
2023-03-05T10:19:00.750Z,14.40
2023-03-05T10:21:32.936Z,15.13
2023-03-05T10:24:11.174Z,12.30
2023-03-05T10:26:46.485Z,17.40
2023-03-05T10:29:24.782Z,15.17
2023-03-05T10:31:58.484Z,24.37
2023-03-05T10:34:48.452Z,14.17
2023-03-05T10:37:31.847Z,21.80
2023-03-05T10:40:09.732Z,13.70
2023-03-05T10:42:43.349Z,17.93
2023-03-05T10:45:16.808Z,15.77
2023-03-05T10:47:53.923Z,16.23
2023-03-05T10:50:24.249Z,25.63
2023-03-05T10:52:54.634Z,21.00
2023-03-05T10:55:25.125Z,18.33
2023-03-05T10:57:53.998Z,17.40
2023-03-05T11:00:23.324Z,23.07
2023-03-05T11:02:56.232Z,16.77
2023-03-05T11:05:48.621Z,17.30
2023-03-05T11:08:24.739Z,12.80
2023-03-05T11:11:06.234Z,14.70
2023-03-05T11:13:35.475Z,14.87
2023-03-05T11:16:05.717Z,12.87
2023-03-05T11:18:35.503Z,16.77
2023-03-05T11:21:12.169Z,13.23
2023-03-05T11:23:40.781Z,19.73
2023-03-05T11:26:20.424Z,14.93
2023-03-05T11:28:58.325Z,17.40
2023-03-05T11:31:27.900Z,16.67
2023-03-05T11:33:57.685Z,12.43
2023-03-05T11:36:27.584Z,14.80
2023-03-05T11:38:57.735Z,14.57
2023-03-05T11:41:33.242Z,14.53
2023-03-05T11:44:05.760Z,21.37
2023-03-05T11:46:40.009Z,22.30
2023-03-05T11:49:09.596Z,14.43
2023-03-05T11:51:42.765Z,13.60
2023-03-05T11:54:14.860Z,18.57
2023-03-05T11:56:46.353Z,13.33
2023-03-05T11:59:16.518Z,21.43
2023-03-05T12:01:47.047Z,17.17
2023-03-05T12:04:15.817Z,13.20
2023-03-05T12:06:46.158Z,14.93
2023-03-05T12:09:17.797Z,12.50
2023-03-05T12:12:10.226Z,14.50
2023-03-05T12:14:43.648Z,15.70
2023-03-05T12:17:15.947Z,10.73
2023-03-05T12:19:50.093Z,13.97
2023-03-05T12:22:19.801Z,15.37
2023-03-05T12:24:48.174Z,11.00
2023-03-05T12:27:17.891Z,14.33
2023-03-05T12:29:49.223Z,22.03
2023-03-05T12:32:36.621Z,16.10
2023-03-05T12:35:06.310Z,10.83
2023-03-05T12:37:54.129Z,15.17
2023-03-05T12:40:24.053Z,14.63
2023-03-05T12:42:56.761Z,10.43
2023-03-05T12:45:31.845Z,12.50
2023-03-05T12:48:19.251Z,11.63
2023-03-05T12:51:01.599Z,15.23
2023-03-05T12:53:30.337Z,8.27
2023-03-05T12:56:03.904Z,17.13
2023-03-05T12:58:38.541Z,9.93
2023-03-05T13:01:22.645Z,10.83
2023-03-05T13:03:58.410Z,16.70
2023-03-05T13:06:34.663Z,12.33
2023-03-05T13:09:04.539Z,11.97
2023-03-05T13:11:35.789Z,10.33
2023-03-05T13:14:05.047Z,11.10
2023-03-05T13:16:41.442Z,9.10
2023-03-05T13:19:17.433Z,11.50
2023-03-05T13:21:45.814Z,22.00
2023-03-05T13:24:19.334Z,9.47
2023-03-05T13:26:47.897Z,9.57
2023-03-05T13:29:16.949Z,16.47
2023-03-05T13:31:48.529Z,14.80
2023-03-05T13:34:18.507Z,12.63
2023-03-05T13:36:48.247Z,11.60
2023-03-05T13:39:22.391Z,13.20
2023-03-05T13:42:01.162Z,17.27
2023-03-05T13:44:30.970Z,12.80
2023-03-05T13:47:17.935Z,11.53
2023-03-05T13:49:47.931Z,9.67
2023-03-05T13:52:25.801Z,12.03
2023-03-05T13:54:54.868Z,11.93
2023-03-05T13:57:35.016Z,20.83
2023-03-05T14:00:03.509Z,14.20
2023-03-05T14:02:33.748Z,10.80
2023-03-05T14:05:02.842Z,10.03
2023-03-05T14:07:34.649Z,12.03
2023-03-05T14:10:03.938Z,10.10
2023-03-05T14:12:36.174Z,12.40
2023-03-05T14:15:07.615Z,20.20
2023-03-05T14:17:43.173Z,11.80
2023-03-05T14:20:24.748Z,9.53
2023-03-05T14:22:56.937Z,9.67
2023-03-05T14:25:46.478Z,19.10
2023-03-05T14:28:24.278Z,12.40
2023-03-05T14:30:55.423Z,15.13
2023-03-05T14:33:26.008Z,11.30
2023-03-05T14:35:55.590Z,6.20
2023-03-05T14:38:25.881Z,11.27
2023-03-05T14:40:57.889Z,19.80
2023-03-05T14:43:26.513Z,12.80
2023-03-05T14:45:55.166Z,12.67
2023-03-05T14:48:25.348Z,14.30
2023-03-05T14:51:02.445Z,10.03
2023-03-05T14:53:34.503Z,9.57
2023-03-05T14:56:03.314Z,16.13
2023-03-05T14:58:35.815Z,10.90
2023-03-05T15:01:14.153Z,11.57
2023-03-05T15:03:44.432Z,11.80
2023-03-05T15:06:18.151Z,9.87
2023-03-05T15:08:46.824Z,12.30
2023-03-05T15:11:22.687Z,16.70
2023-03-05T15:14:06.628Z,13.70
2023-03-05T15:16:40.396Z,15.90
2023-03-05T15:19:11.474Z,11.50
2023-03-05T15:21:42.447Z,14.60
2023-03-05T15:24:11.689Z,10.00
2023-03-05T15:26:46.197Z,13.40
2023-03-05T15:29:15.045Z,11.83
2023-03-05T15:31:43.573Z,10.93
2023-03-05T15:34:16.439Z,14.27
2023-03-05T15:36:44.826Z,9.87
2023-03-05T15:39:13.798Z,11.23
2023-03-05T15:41:42.527Z,8.17
2023-03-05T15:44:11.239Z,15.33
2023-03-05T15:46:40.025Z,9.10
2023-03-05T15:49:09.004Z,7.87
2023-03-05T15:51:47.503Z,11.83
2023-03-05T15:54:16.294Z,12.70
2023-03-05T15:56:45.084Z,10.27
2023-03-05T15:59:14.656Z,5.70
2023-03-05T16:01:46.777Z,12.10
2023-03-05T16:04:15.676Z,7.60
2023-03-05T16:06:46.718Z,6.77
2023-03-05T16:09:23.470Z,7.77
2023-03-05T16:11:52.048Z,6.20
2023-03-05T16:14:23.482Z,6.10
2023-03-05T16:16:52.862Z,3.23
2023-03-05T16:19:21.576Z,5.00
2023-03-05T16:21:51.437Z,10.60
2023-03-05T16:24:19.987Z,6.27
2023-03-05T16:26:55.605Z,8.83
2023-03-05T16:29:24.289Z,6.23
2023-03-05T16:31:53.092Z,10.00
2023-03-05T16:34:21.531Z,7.57
2023-03-05T16:36:52.903Z,4.43
2023-03-05T16:39:22.040Z,5.77
2023-03-05T16:41:52.666Z,5.17
2023-03-05T16:44:31.697Z,10.47
2023-03-05T16:47:00.312Z,6.97
2023-03-05T16:49:28.769Z,8.77
2023-03-05T16:52:03.499Z,12.20
2023-03-05T16:54:41.489Z,6.83
2023-03-05T16:57:11.083Z,6.50
2023-03-05T16:59:39.744Z,7.10
2023-03-05T17:02:08.514Z,6.57
2023-03-05T17:04:37.165Z,8.83
2023-03-05T17:07:07.149Z,5.97
2023-03-05T17:09:35.767Z,6.07
2023-03-05T17:12:05.379Z,7.63
2023-03-05T17:14:34.147Z,6.50
2023-03-05T17:17:02.682Z,5.80
2023-03-05T17:19:32.082Z,9.13
2023-03-05T17:22:02.742Z,7.23
2023-03-05T17:24:34.398Z,10.53
2023-03-05T17:27:02.974Z,7.00
2023-03-05T17:30:20.897Z,5.27
2023-03-05T17:32:49.451Z,12.57
2023-03-05T17:35:19.444Z,8.00
2023-03-05T17:37:48.268Z,8.87
2023-03-05T17:40:18.417Z,7.73
2023-03-05T17:42:47.438Z,7.53
2023-03-05T17:45:15.920Z,5.83
2023-03-05T17:47:44.440Z,5.90
2023-03-05T17:50:14.993Z,6.57
2023-03-05T17:52:43.751Z,6.43
2023-03-05T17:55:14.954Z,5.33
2023-03-05T17:57:47.659Z,8.37
2023-03-05T18:00:17.868Z,9.83
2023-03-05T18:02:46.408Z,9.77
2023-03-05T18:05:16.491Z,9.43
2023-03-05T18:07:45.429Z,3.33
2023-03-05T18:10:14.884Z,5.23
2023-03-05T18:12:45.538Z,8.60
2023-03-05T18:15:15.458Z,5.33
2023-03-05T18:17:44.201Z,6.23
2023-03-05T18:20:22.267Z,6.93
2023-03-05T18:22:51.818Z,3.17
2023-03-05T18:25:20.650Z,10.10
2023-03-05T18:27:54.682Z,10.97
2023-03-05T18:30:23.791Z,5.77
2023-03-05T18:32:52.933Z,5.30
2023-03-05T18:35:21.734Z,5.23
2023-03-05T18:37:50.802Z,6.90
2023-03-05T18:40:20.665Z,5.57
2023-03-05T18:42:55.120Z,5.80
2023-03-05T18:45:25.249Z,8.70
2023-03-05T18:47:54.422Z,5.90
2023-03-05T18:50:24.719Z,8.80
2023-03-05T18:55:53.689Z,4.47
2023-03-05T18:58:26.000Z,11.03
2023-03-05T19:00:55.206Z,4.37
2023-03-05T19:03:23.942Z,9.40
2023-03-05T19:05:53.192Z,6.20
2023-03-05T19:08:22.713Z,4.27
2023-03-05T19:10:54.229Z,6.37
2023-03-05T19:13:43.237Z,8.50
2023-03-05T19:16:13.096Z,7.70
2023-03-05T19:19:24.538Z,5.50
2023-03-05T19:22:07.840Z,7.03
2023-03-05T19:24:38.136Z,7.57
2023-03-05T19:27:13.206Z,5.50
2023-03-05T19:29:43.642Z,5.30
2023-03-05T19:32:16.154Z,6.43
2023-03-05T19:34:44.991Z,4.67
2023-03-05T19:37:14.088Z,4.90
2023-03-05T19:39:43.042Z,12.83
2023-03-05T19:42:13.494Z,7.20
2023-03-05T19:44:44.480Z,7.80
2023-03-05T19:47:13.624Z,8.83
2023-03-05T19:49:44.259Z,6.53
2023-03-05T19:52:17.864Z,10.83
2023-03-05T19:54:46.256Z,9.37
2023-03-05T19:57:15.290Z,6.00
2023-03-05T19:59:46.879Z,6.07
2023-03-05T20:02:22.064Z,7.17
2023-03-05T20:04:50.849Z,7.60
2023-03-05T20:07:21.269Z,10.23
2023-03-05T20:09:52.013Z,6.23
2023-03-05T20:12:26.267Z,6.03
2023-03-05T20:15:04.897Z,7.97
2023-03-05T20:17:35.787Z,7.87
2023-03-05T20:20:06.394Z,7.93
2023-03-05T20:22:34.969Z,4.30
2023-03-05T20:25:33.037Z,5.67
2023-03-05T20:28:01.942Z,11.10
2023-03-05T20:30:32.169Z,6.23
2023-03-05T20:33:00.935Z,10.80
2023-03-05T20:35:29.540Z,8.67
2023-03-05T20:38:22.372Z,8.13
2023-03-05T20:40:51.890Z,8.03
2023-03-05T20:43:20.422Z,7.83
2023-03-05T20:45:50.929Z,5.47
2023-03-05T20:48:21.629Z,6.63
2023-03-05T20:50:50.417Z,9.67
2023-03-05T20:53:21.278Z,4.03
2023-03-05T20:55:50.226Z,7.73
2023-03-05T20:58:20.788Z,6.53
2023-03-05T21:00:50.923Z,8.00
2023-03-05T21:03:20.910Z,4.03
2023-03-05T21:05:50.693Z,8.07
2023-03-05T21:08:20.831Z,8.07
2023-03-05T21:10:49.453Z,9.23
2023-03-05T21:13:18.456Z,4.63
2023-03-05T21:15:46.892Z,10.07
2023-03-05T21:18:17.036Z,8.50
2023-03-05T21:20:45.757Z,6.60
2023-03-05T21:23:14.273Z,7.80
2023-03-05T21:25:42.784Z,10.03
2023-03-05T21:28:15.301Z,9.57
2023-03-05T21:30:45.821Z,9.13
2023-03-05T21:33:15.069Z,6.77
2023-03-05T21:35:45.662Z,8.43
2023-03-05T21:38:14.948Z,14.90
2023-03-05T21:40:48.541Z,7.33
2023-03-05T21:43:17.875Z,8.43
2023-03-05T21:45:47.803Z,6.40
2023-03-05T21:48:16.688Z,4.97
2023-03-05T21:50:47.447Z,4.43
2023-03-05T21:53:21.225Z,8.63
2023-03-05T21:56:25.113Z,5.90
2023-03-05T21:58:53.991Z,4.00
2023-03-05T22:01:22.743Z,7.87
2023-03-05T22:03:51.978Z,4.53
2023-03-05T22:06:22.349Z,9.40
2023-03-05T22:08:50.956Z,6.60
2023-03-05T22:11:21.095Z,6.00
2023-03-05T22:13:50.076Z,8.67
2023-03-05T22:16:25.749Z,13.90
2023-03-05T22:18:54.512Z,9.00
2023-03-05T22:21:28.741Z,8.70
2023-03-05T22:23:58.202Z,5.57
2023-03-05T22:26:27.130Z,7.87
2023-03-05T22:28:55.675Z,9.63
2023-03-05T22:31:25.298Z,5.80
2023-03-05T22:33:54.499Z,6.57
2023-03-05T22:36:22.943Z,6.43
2023-03-05T22:38:53.064Z,7.77
2023-03-05T22:41:21.598Z,9.83
2023-03-05T22:43:50.657Z,9.60
2023-03-05T22:46:20.372Z,6.10
2023-03-05T22:48:48.906Z,9.17
2023-03-05T22:51:17.696Z,9.87
2023-03-05T22:53:46.770Z,6.00
2023-03-05T22:56:17.645Z,10.90
2023-03-05T22:58:46.137Z,6.40
2023-03-05T23:01:14.981Z,10.47
2023-03-05T23:03:57.383Z,8.17
2023-03-05T23:06:26.319Z,7.20
2023-03-05T23:08:55.706Z,7.10
2023-03-05T23:11:25.549Z,6.63
2023-03-05T23:13:54.148Z,11.60
2023-03-05T23:16:22.713Z,10.07
2023-03-05T23:18:51.080Z,10.23
2023-03-05T23:21:19.708Z,7.40
2023-03-05T23:23:48.219Z,10.40
2023-03-05T23:26:16.733Z,3.97
2023-03-05T23:28:46.591Z,5.17
2023-03-05T23:31:15.121Z,12.20
2023-03-05T23:33:43.700Z,4.77
2023-03-05T23:36:12.818Z,8.27
2023-03-05T23:38:41.684Z,5.97
2023-03-05T23:41:11.502Z,8.63
2023-03-05T23:43:39.940Z,10.10
2023-03-05T23:46:13.777Z,10.03
2023-03-05T23:48:43.814Z,5.60
2023-03-05T23:51:12.542Z,7.67
2023-03-05T23:53:41.590Z,9.83
2023-03-05T23:56:11.176Z,4.47
2023-03-05T23:58:39.615Z,8.70
